NOAA Web Site Link Tides and Currents Home Page Transparent placeholder image

PORTS® Data Listing: 8573927 Chesapeake City, MD

CO-OPS RAW PORTS DATA

************************      PRELIMINARY DATA      ************************** 

     THIS RAW DATA HAS NOT BEEN SUBJECT TO THE NATIONAL OCEAN SERVICE'S        
     QUALITY CONTROL OR QUALITY ASSURANCE PROCEDURES AND DOES NOT MEET         
     THE CRITERIA AND STANDARDS OF OFFICIAL NATIONAL OCEAN SERVICE             
     DATA.  IT IS RELEASED FOR LIMITED PUBLIC USE AS PRELIMINARY DATA TO       
     BE USED ONLY WITH APPROPRIATE CAUTION.                                    

************************      PRELIMINARY DATA      ************************** 


       CD   -   Calendar date
       T    -   Time
       TZ   -   Timezone
       PW   -   Predicted water level (feet above MLLW)
       OW   -   Observed water level (feet above MLLW)
       WS   -   Wind speed (knots)
       WD   -   Wind direction (degrees true)
       WG   -   Wind gust (knots)
       AT   -   Air temperature (degrees farenheit)
       WT   -   Water temperature (degrees farenheit)
       AP   -   Air pressure (millibars)
       SA   -   Salinty (PSU - Practical Salinity Units)
       SG   -   Specific gravity
       RH   -   Relative humidity
       AG   -   Air gap (feet)
       VI   -   Visibility (nautical miles)

       ** NOTE **
       A variable that has its data fields filled with "9"s, indicates that
       data was not collected for that sample period.
       **********


STATION NAME: Chesapeake City (8573927)
****************************************************************************************************
    CD       T    TZ    PW     OW    WS   WD   WG    AT    WT    AP    SA    SG     RH    AG   VI
****************************************************************************************************
2018/12/10 10:24 EST    1.98   2.34    7   35    9  34.5  39.7 1021.9 -9.9 -9.999 -99.9 -99.99 -9.99
2018/12/10 10:30 EST    2.06   2.41    4   35   12  34.9  39.7 1022.0 -9.9 -9.999 -99.9 -99.99 -9.99
2018/12/10 10:36 EST    2.12   2.47    9   37   14  34.0  39.7 1022.0 -9.9 -9.999 -99.9 -99.99 -9.99
2018/12/10 10:42 EST    2.19   2.53    6   48   12  34.3  39.6 1022.0 -9.9 -9.999 -99.9 -99.99 -9.99
2018/12/10 10:48 EST    2.25   2.58    7   42   12  34.3  39.6 1022.0 -9.9 -9.999 -99.9 -99.99 -9.99
2018/12/10 10:54 EST    2.31   2.64    9   26   11  34.3  39.6 1021.9 -9.9 -9.999 -99.9 -99.99 -9.99
2018/12/10 11:00 EST    2.36   2.72    6   51   14  34.9  39.6 1021.8 -9.9 -9.999 -99.9 -99.99 -9.99
2018/12/10 11:06 EST    2.41   2.77    5   44   10  35.1  39.6 1021.7 -9.9 -9.999 -99.9 -99.99 -9.99
2018/12/10 11:12 EST    2.46   2.84    5   36   11  35.2  39.6 1021.7 -9.9 -9.999 -99.9 -99.99 -9.99
2018/12/10 11:18 EST    2.50   2.89    7   59   10  35.2  39.6 1021.6 -9.9 -9.999 -99.9 -99.99 -9.99
2018/12/10 11:24 EST    2.54   2.92    3   18    8  35.2  39.6 1021.5 -9.9 -9.999 -99.9 -99.99 -9.99
2018/12/10 11:30 EST    2.57   2.95    4    7   10  34.9  39.6 1021.4 -9.9 -9.999 -99.9 -99.99 -9.99
2018/12/10 11:36 EST    2.60   3.00    6  358    9  35.4  39.6 1021.2 -9.9 -9.999 -99.9 -99.99 -9.99
2018/12/10 11:42 EST    2.63   3.03    4    2    8  35.6  39.6 1021.1 -9.9 -9.999 -99.9 -99.99 -9.99
2018/12/10 11:48 EST    2.65   3.04    7  358   11  35.1  39.6 1021.1 -9.9 -9.999 -99.9 -99.99 -9.99
2018/12/10 11:54 EST    2.67   3.05    4   12    6  35.6  39.6 1021.1 -9.9 -9.999 -99.9 -99.99 -9.99
2018/12/10 12:00 EST    2.68   3.07    7   27    9  35.4  39.6 1021.0 -9.9 -9.999 -99.9 -99.99 -9.99
2018/12/10 12:06 EST    2.69   3.08    3  355    9  35.6  39.6 1021.0 -9.9 -9.999 -99.9 -99.99 -9.99
2018/12/10 12:12 EST    2.70   3.09    4    5    7  36.0  39.6 1020.8 -9.9 -9.999 -99.9 -99.99 -9.99
2018/12/10 12:18 EST    2.71   3.10    3   54    8  36.1  39.4 1020.9 -9.9 -9.999 -99.9 -99.99 -9.99
2018/12/10 12:24 EST    2.71   3.10    5   67    6  36.1  39.4 1020.8 -9.9 -9.999 -99.9 -99.99 -9.99
2018/12/10 12:30 EST    2.70   3.11    2  336    7  36.3  39.4 1020.8 -9.9 -9.999 -99.9 -99.99 -9.99
2018/12/10 12:36 EST    2.70   3.12    6   16    7  36.3  39.6 1020.7 -9.9 -9.999 -99.9 -99.99 -9.99
2018/12/10 12:42 EST    2.68   3.12    5   32    8  36.5  39.7 1020.6 -9.9 -9.999 -99.9 -99.99 -9.99
2018/12/10 12:48 EST    2.67   3.13    2  340    6  36.5  39.7 1020.6 -9.9 -9.999 -99.9 -99.99 -9.99
2018/12/10 12:54 EST    2.65   3.14    3  354    5  36.5  39.7 1020.5 -9.9 -9.999 -99.9 -99.99 -9.99
2018/12/10 13:00 EST    2.63   3.12    3   49    4  36.7  39.7 1020.5 -9.9 -9.999 -99.9 -99.99 -9.99
2018/12/10 13:06 EST    2.60   3.11    2  352    4  37.0  39.7 1020.4 -9.9 -9.999 -99.9 -99.99 -9.99
2018/12/10 13:12 EST    2.57   3.11    4   25    6  37.0  39.9 1020.3 -9.9 -9.999 -99.9 -99.99 -9.99
2018/12/10 13:18 EST    2.54   3.10    4  318    5  37.6  39.9 1020.3 -9.9 -9.999 -99.9 -99.99 -9.99
2018/12/10 13:24 EST    2.51   3.05    3   10   10  37.2  39.9 1020.3 -9.9 -9.999 -99.9 -99.99 -9.99
2018/12/10 13:30 EST    2.47   3.05    5  323    7  37.6  39.9 1020.3 -9.9 -9.999 -99.9 -99.99 -9.99
2018/12/10 13:36 EST    2.42   3.03    5  357    8  37.6  39.9 1020.3 -9.9 -9.999 -99.9 -99.99 -9.99
2018/12/10 13:42 EST    2.38   2.99    7  337    8  37.6  39.9 1020.2 -9.9 -9.999 -99.9 -99.99 -9.99
2018/12/10 13:48 EST    2.33   2.98    5  359    8  37.4  39.9 1020.2 -9.9 -9.999 -99.9 -99.99 -9.99
2018/12/10 13:54 EST    2.28   2.93    4  354    6  37.9  39.7 1020.1 -9.9 -9.999 -99.9 -99.99 -9.99
2018/12/10 14:00 EST    2.22   2.90    4  331    6  38.1  39.7 1020.1 -9.9 -9.999 -99.9 -99.99 -9.99
2018/12/10 14:06 EST    2.17   2.86    5   24    8  38.3  39.7 1020.1 -9.9 -9.999 -99.9 -99.99 -9.99
2018/12/10 14:12 EST    2.11   2.82    7    1    8  37.9  39.7 1020.1 -9.9 -9.999 -99.9 -99.99 -9.99
2018/12/10 14:18 EST    2.05   2.78    6    8    9  37.9  39.7 1020.1 -9.9 -9.999 -99.9 -99.99 -9.99
2018/12/10 14:24 EST    1.99   2.73    5  351    8  37.9  39.7 1020.1 -9.9 -9.999 -99.9 -99.99 -9.99
2018/12/10 14:30 EST    1.92   2.68    6  352    8  37.9  39.7 1020.1 -9.9 -9.999 -99.9 -99.99 -9.99
2018/12/10 14:36 EST    1.86   2.64    5  351    8  37.9  39.7 1020.2 -9.9 -9.999 -99.9 -99.99 -9.99
2018/12/10 14:42 EST    1.79   2.57    2   19    5  38.1  39.7 1020.2 -9.9 -9.999 -99.9 -99.99 -9.99
2018/12/10 14:48 EST    1.73   2.52    4    2    6  38.3  39.7 1020.2 -9.9 -9.999 -99.9 -99.99 -9.99
2018/12/10 14:54 EST    1.66   2.45    7  331    9  37.8  39.7 1020.3 -9.9 -9.999 -99.9 -99.99 -9.99
2018/12/10 15:00 EST    1.60   2.39    6  323   10  37.9  39.7 1020.3 -9.9 -9.999 -99.9 -99.99 -9.99
2018/12/10 15:06 EST    1.53   2.33    6  322    9  37.8  39.7 1020.3 -9.9 -9.999 -99.9 -99.99 -9.99
2018/12/10 15:12 EST    1.46   2.27    7  326    9  37.4  39.7 1020.4 -9.9 -9.999 -99.9 -99.99 -9.99
2018/12/10 15:18 EST    1.40   2.21    6  329   10  37.4  39.7 1020.3 -9.9 -9.999 -99.9 -99.99 -9.99
2018/12/10 15:24 EST    1.33   2.15    5  325    8  37.4  39.4 1020.3 -9.9 -9.999 -99.9 -99.99 -9.99
2018/12/10 15:30 EST    1.27   2.09    4  320    6  37.6  39.4 1020.3 -9.9 -9.999 -99.9 -99.99 -9.99
2018/12/10 15:36 EST    1.20   2.03    4  318    6  37.8  39.2 1020.3 -9.9 -9.999 -99.9 -99.99 -9.99
2018/12/10 15:42 EST    1.14   1.98    5  325    7  37.4  39.2 1020.3 -9.9 -9.999 -99.9 -99.99 -9.99
2018/12/10 15:48 EST    1.08   1.92    3  343    7  37.6  39.2 1020.4 -9.9 -9.999 -99.9 -99.99 -9.99
2018/12/10 15:54 EST    1.02   1.86    4  328    7  37.6  39.2 1020.4 -9.9 -9.999 -99.9 -99.99 -9.99
2018/12/10 16:00 EST    0.96   1.79    5  323    7  37.2  39.2 1020.5 -9.9 -9.999 -99.9 -99.99 -9.99
2018/12/10 16:06 EST    0.90   1.72    4  317    6  37.0  39.2 1020.5 -9.9 -9.999 -99.9 -99.99 -9.99
2018/12/10 16:12 EST    0.84   1.65    4  327    6  36.7  39.2 1020.5 -9.9 -9.999 -99.9 -99.99 -9.99
2018/12/10 16:18 EST    0.79   1.59    5  324    6  36.3  39.4 1020.5 -9.9 -9.999 -99.9 -99.99 -9.99
2018/12/10 16:24 EST    0.73   1.52    4  327    7  36.1  39.2 1020.6 -9.9 -9.999 -99.9 -99.99 -9.99
2018/12/10 16:30 EST    0.68   1.46    4  325    6  35.8  39.4 1020.6 -9.9 -9.999 -99.9 -99.99 -9.99
2018/12/10 16:36 EST    0.63   1.40    4  317    6  35.6  39.2 1020.7 -9.9 -9.999 -99.9 -99.99 -9.99
2018/12/10 16:42 EST    0.59   1.35    4  318    4  35.4  39.2 1020.7 -9.9 -9.999 -99.9 -99.99 -9.99
2018/12/10 16:48 EST    0.54   1.29    4  313    4  35.4  39.2 1020.8 -9.9 -9.999 -99.9 -99.99 -9.99
2018/12/10 16:54 EST    0.50   1.24    3  317    4  35.4  39.2 1020.9 -9.9 -9.999 -99.9 -99.99 -9.99
2018/12/10 17:00 EST    0.46   1.18    3  291    4  34.9  39.2 1020.9 -9.9 -9.999 -99.9 -99.99 -9.99
2018/12/10 17:06 EST    0.42   1.14    3  296    4  34.7  39.2 1020.9 -9.9 -9.999 -99.9 -99.99 -9.99
2018/12/10 17:12 EST    0.39   1.10    3  328    4  34.7  39.2 1021.0 -9.9 -9.999 -99.9 -99.99 -9.99
2018/12/10 17:18 EST    0.36   1.06    2  320    3  34.5  39.2 1021.0 -9.9 -9.999 -99.9 -99.99 -9.99
2018/12/10 17:24 EST    0.33   1.00    2  318    3  34.3  39.2 1021.0 -9.9 -9.999 -99.9 -99.99 -9.99
2018/12/10 17:30 EST    0.30   0.97    2  318    3  34.0  39.2 1021.0 -9.9 -9.999 -99.9 -99.99 -9.99
2018/12/10 17:36 EST    0.28   0.94    1  261    2  32.9  39.2 1021.1 -9.9 -9.999 -99.9 -99.99 -9.99
2018/12/10 17:42 EST    0.25   0.89    1  282    2  32.7  39.2 1021.1 -9.9 -9.999 -99.9 -99.99 -9.99
2018/12/10 17:48 EST    0.24   0.88    1  317    2  32.7  39.2 1021.1 -9.9 -9.999 -99.9 -99.99 -9.99
2018/12/10 17:54 EST    0.22   0.85    2  348    3  33.1  39.2 1021.0 -9.9 -9.999 -99.9 -99.99 -9.99
2018/12/10 18:00 EST    0.21   0.83    2  342    3  32.9  39.2 1021.0 -9.9 -9.999 -99.9 -99.99 -9.99
2018/12/10 18:06 EST    0.20   0.80    2  351    3  32.9  39.2 1021.0 -9.9 -9.999 -99.9 -99.99 -9.99
2018/12/10 18:12 EST    0.19   0.79    2  317    3  32.7  39.2 1021.0 -9.9 -9.999 -99.9 -99.99 -9.99
2018/12/10 18:18 EST    0.18   0.79    1  265    2  30.9  39.2 1021.1 -9.9 -9.999 -99.9 -99.99 -9.99
2018/12/10 18:24 EST    0.18   0.78    1  281    2  31.1  39.0 1021.2 -9.9 -9.999 -99.9 -99.99 -9.99
2018/12/10 18:30 EST    0.18   0.78    0  205    1  30.7  39.0 1021.4 -9.9 -9.999 -99.9 -99.99 -9.99
2018/12/10 18:36 EST    0.18   0.78    1  180    2  30.6  39.0 1021.5 -9.9 -9.999 -99.9 -99.99 -9.99
2018/12/10 18:42 EST    0.19   0.78    1  200    2  29.7  39.0 1021.4 -9.9 -9.999 -99.9 -99.99 -9.99
2018/12/10 18:48 EST    0.19   0.80    1  196    1  29.5  39.0 1021.5 -9.9 -9.999 -99.9 -99.99 -9.99
2018/12/10 18:54 EST    0.20   0.80    1  199    1  29.5  39.0 1021.5 -9.9 -9.999 -99.9 -99.99 -9.99
2018/12/10 19:00 EST    0.21   0.84    1  202    1  28.9  39.0 1021.6 -9.9 -9.999 -99.9 -99.99 -9.99
2018/12/10 19:06 EST    0.22   0.85    1  212    1  28.9  39.0 1021.6 -9.9 -9.999 -99.9 -99.99 -9.99
2018/12/10 19:12 EST    0.24   0.87    0  226    1  29.3  39.0 1021.6 -9.9 -9.999 -99.9 -99.99 -9.99
2018/12/10 19:18 EST    0.25   0.89    0  251    1  29.5  39.0 1021.7 -9.9 -9.999 -99.9 -99.99 -9.99
2018/12/10 19:24 EST    0.27   0.89    1  225    1  29.1  39.0 1021.7 -9.9 -9.999 -99.9 -99.99 -9.99
2018/12/10 19:30 EST    0.29   0.93    1  249    1  29.1  39.4 1021.7 -9.9 -9.999 -99.9 -99.99 -9.99
2018/12/10 19:36 EST    0.31   0.92    1  278    2  29.5  39.6 1021.8 -9.9 -9.999 -99.9 -99.99 -9.99
2018/12/10 19:42 EST    0.33   0.97    1  271    1  29.3  39.6 1021.8 -9.9 -9.999 -99.9 -99.99 -9.99
2018/12/10 19:48 EST    0.36   0.98    0  251    1  28.9  39.6 1021.8 -9.9 -9.999 -99.9 -99.99 -9.99
2018/12/10 19:54 EST    0.39   1.02    1  190    2  28.4  39.6 1021.8 -9.9 -9.999 -99.9 -99.99 -9.99
2018/12/10 20:00 EST    0.42   1.03    1  202    1  28.0  39.7 1021.9 -9.9 -9.999 -99.9 -99.99 -9.99
2018/12/10 20:06 EST    0.45   1.04    0  199    1  27.9  39.7 1022.0 -9.9 -9.999 -99.9 -99.99 -9.99
2018/12/10 20:12 EST    0.49   1.07    0  216    1  27.7  39.7 1022.0 -9.9 -9.999 -99.9 -99.99 -9.99
2018/12/10 20:18 EST    0.53   1.10    1  200    1  27.7  39.7 1022.1 -9.9 -9.999 -99.9 -99.99 -9.99
2018/12/10 20:24 EST    0.57   1.17    1  195    2  27.7  39.9 1022.1 -9.9 -9.999 -99.9 -99.99 -9.99
2018/12/10 20:30 EST    0.62   1.18    1  185    2  27.5  39.9 1022.1 -9.9 -9.999 -99.9 -99.99 -9.99
2018/12/10 20:36 EST    0.67   1.19    0  212    1  27.3  39.9 1022.2 -9.9 -9.999 -99.9 -99.99 -9.99
2018/12/10 20:42 EST    0.72   1.23    0  222    1  27.3  40.1 1022.2 -9.9 -9.999 -99.9 -99.99 -9.99
2018/12/10 20:48 EST    0.77   1.28    1  215    1  27.5  40.1 1022.3 -9.9 -9.999 -99.9 -99.99 -9.99
2018/12/10 20:54 EST    0.83   1.33    0  223    1  27.5  40.1 1022.2 -9.9 -9.999 -99.9 -99.99 -9.99
2018/12/10 21:00 EST    0.89   1.42    1  211    2  27.7  40.1 1022.3 -9.9 -9.999 -99.9 -99.99 -9.99
2018/12/10 21:06 EST    0.95   1.47    1  219    2  27.5  40.1 1022.3 -9.9 -9.999 -99.9 -99.99 -9.99
2018/12/10 21:12 EST    1.02   1.57    1  206    2  27.3  40.1 1022.3 -9.9 -9.999 -99.9 -99.99 -9.99
2018/12/10 21:18 EST    1.09   1.65    1  192    1  27.0  40.1 1022.4 -9.9 -9.999 -99.9 -99.99 -9.99
2018/12/10 21:24 EST    1.16   1.73    1  229    1  26.8  40.1 1022.4 -9.9 -9.999 -99.9 -99.99 -9.99
2018/12/10 21:30 EST    1.23   1.83    1  248    1  27.3  40.1 1022.4 -9.9 -9.999 -99.9 -99.99 -9.99
2018/12/10 21:36 EST    1.31   1.90    1  236    1  27.1  40.1 1022.4 -9.9 -9.999 -99.9 -99.99 -9.99
2018/12/10 21:42 EST    1.38   2.00    1  244    1  27.3  40.1 1022.4 -9.9 -9.999 -99.9 -99.99 -9.99
2018/12/10 21:48 EST    1.45   2.05    1  254    1  27.3  40.1 1022.4 -9.9 -9.999 -99.9 -99.99 -9.99
2018/12/10 21:54 EST    1.53   2.19    1  264    1  27.0  40.1 1022.4 -9.9 -9.999 -99.9 -99.99 -9.99
2018/12/10 22:00 EST    1.61   2.28    1  266    2  27.1  40.1 1022.4 -9.9 -9.999 -99.9 -99.99 -9.99
2018/12/10 22:06 EST    1.68   2.37    1  252    2  26.4  39.9 1022.4 -9.9 -9.999 -99.9 -99.99 -9.99
2018/12/10 22:12 EST    1.75   2.52    1  237    2  26.8  39.9 1022.4 -9.9 -9.999 -99.9 -99.99 -9.99
2018/12/10 22:18 EST    1.83   2.51    1  256    2  26.2  39.9 1022.4 -9.9 -9.999 -99.9 -99.99 -9.99
2018/12/10 22:24 EST    1.90   2.62    1  268    1  27.0  39.9 1022.3 -9.9 -9.999 -99.9 -99.99 -9.99
2018/12/10 22:30 EST    1.96   2.68    0  246    2  26.6  39.9 1022.3 -9.9 -9.999 -99.9 -99.99 -9.99
2018/12/10 22:36 EST    2.03   2.73    1  190    1  26.6  39.9 1022.4 -9.9 -9.999 -99.9 -99.99 -9.99
2018/12/10 22:42 EST    2.09   2.84    1  196    1  26.4  39.9 1022.4 -9.9 -9.999 -99.9 -99.99 -9.99
2018/12/10 22:48 EST    2.15   2.82    0  189    1  26.6  39.9 1022.5 -9.9 -9.999 -99.9 -99.99 -9.99
2018/12/10 22:54 EST    2.21   2.98    1  217    2  26.2  39.9 1022.5 -9.9 -9.999 -99.9 -99.99 -9.99
2018/12/10 23:00 EST    2.27   3.02    1  215    2  25.9  39.9 1022.5 -9.9 -9.999 -99.9 -99.99 -9.99
2018/12/10 23:06 EST    2.32   3.11    0  184    1  26.1  39.9 1022.5 -9.9 -9.999 -99.9 -99.99 -9.99
2018/12/10 23:12 EST    2.36   3.17    0  197    1  26.2  39.9 1022.5 -9.9 -9.999 -99.9 -99.99 -9.99
2018/12/10 23:18 EST    2.41   3.20    1  196    1  25.9  39.9 1022.5 -9.9 -9.999 -99.9 -99.99 -9.99
2018/12/10 23:24 EST    2.45   3.27    0  194    1  25.9  39.9 1022.5 -9.9 -9.999 -99.9 -99.99 -9.99
2018/12/10 23:30 EST    2.49   3.29    0  195    0  26.1  39.7 1022.5 -9.9 -9.999 -99.9 -99.99 -9.99
2018/12/10 23:36 EST    2.52   3.35    0  221    1  26.1  39.7 1022.5 -9.9 -9.999 -99.9 -99.99 -9.99
2018/12/10 23:42 EST    2.55   3.40    1  222    1  25.9  39.7 1022.5 -9.9 -9.999 -99.9 -99.99 -9.99
2018/12/10 23:48 EST    2.57   3.46    0  238    1  26.2  39.7 1022.5 -9.9 -9.999 -99.9 -99.99 -9.99
2018/12/10 23:54 EST    2.60   3.51    1  252    1  25.9  39.7 1022.6 -9.9 -9.999 -99.9 -99.99 -9.99
2018/12/11 00:00 EST    2.62   3.54    1  268    1  26.1  39.7 1022.6 -9.9 -9.999 -99.9 -99.99 -9.99
2018/12/11 00:06 EST    2.63   3.58    1  260    1  25.9  39.7 1022.5 -9.9 -9.999 -99.9 -99.99 -9.99
2018/12/11 00:12 EST    2.64   3.61    1  273    1  25.9  39.7 1022.5 -9.9 -9.999 -99.9 -99.99 -9.99
2018/12/11 00:18 EST    2.65   3.63    1  256    1  25.7  39.7 1022.5 -9.9 -9.999 -99.9 -99.99 -9.99
2018/12/11 00:24 EST    2.66   3.67    1  242    1  26.1  39.7 1022.5 -9.9 -9.999 -99.9 -99.99 -9.99
2018/12/11 00:30 EST    2.66   3.66    1  234    1  26.1  39.7 1022.4 -9.9 -9.999 -99.9 -99.99 -9.99
2018/12/11 00:36 EST    2.66   3.67    1  247    1  26.1  39.7 1022.4 -9.9 -9.999 -99.9 -99.99 -9.99
2018/12/11 00:42 EST    2.66   3.72    0  266    1  26.1  39.7 1022.4 -9.9 -9.999 -99.9 -99.99 -9.99
2018/12/11 00:48 EST    2.65   3.70    0  264    1  25.9  39.7 1022.3 -9.9 -9.999 -99.9 -99.99 -9.99
2018/12/11 00:54 EST    2.64   3.68    0  259    0  25.7  39.7 1022.3 -9.9 -9.999 -99.9 -99.99 -9.99
2018/12/11 01:00 EST    2.63   3.65    1  215    1  25.2  39.7 1022.3 -9.9 -9.999 -99.9 -99.99 -9.99
2018/12/11 01:06 EST    2.62   3.63    1  189    1  25.3  39.7 1022.3 -9.9 -9.999 -99.9 -99.99 -9.99
2018/12/11 01:12 EST    2.60   3.60    0  187    1  25.2  39.7 1022.2 -9.9 -9.999 -99.9 -99.99 -9.99
2018/12/11 01:18 EST    2.58   3.60    0  187    1  25.2  39.7 1022.2 -9.9 -9.999 -99.9 -99.99 -9.99
2018/12/11 01:24 EST    2.55   3.59    0  186    1  25.3  39.7 1022.3 -9.9 -9.999 -99.9 -99.99 -9.99
2018/12/11 01:30 EST    2.52   3.54    0  187    1  25.3  39.7 1022.3 -9.9 -9.999 -99.9 -99.99 -9.99
2018/12/11 01:36 EST    2.49   3.50    1  190    1  25.3  39.7 1022.4 -9.9 -9.999 -99.9 -99.99 -9.99
2018/12/11 01:42 EST    2.46   3.47    1  192    1  25.0  39.7 1022.4 -9.9 -9.999 -99.9 -99.99 -9.99
2018/12/11 01:48 EST    2.42   3.43    1  183    1  24.8  39.7 1022.5 -9.9 -9.999 -99.9 -99.99 -9.99
2018/12/11 01:54 EST    2.38   3.39    1  167    1  24.6  39.7 1022.5 -9.9 -9.999 -99.9 -99.99 -9.99
2018/12/11 02:00 EST    2.33   3.37    1  176    2  24.4  39.7 1022.6 -9.9 -9.999 -99.9 -99.99 -9.99
2018/12/11 02:06 EST    2.29   3.32    0  199    1  24.3  39.7 1022.7 -9.9 -9.999 -99.9 -99.99 -9.99
2018/12/11 02:12 EST    2.24   3.28    1  167    1  24.3  39.7 1022.7 -9.9 -9.999 -99.9 -99.99 -9.99
2018/12/11 02:18 EST    2.19   3.24    0  192    1  24.1  39.7 1022.7 -9.9 -9.999 -99.9 -99.99 -9.99
2018/12/11 02:24 EST    2.13   3.18    1  185    1  24.1  39.7 1022.7 -9.9 -9.999 -99.9 -99.99 -9.99
2018/12/11 02:30 EST    2.08   3.13    0  184    1  24.3  39.7 1022.7 -9.9 -9.999 -99.9 -99.99 -9.99
2018/12/11 02:36 EST    2.02   3.08    1  201    1  24.3  39.7 1022.7 -9.9 -9.999 -99.9 -99.99 -9.99
2018/12/11 02:42 EST    1.96   3.03    1  223    2  23.9  39.7 1022.7 -9.9 -9.999 -99.9 -99.99 -9.99
2018/12/11 02:48 EST    1.90   2.99    1  221    1  23.9  39.7 1022.7 -9.9 -9.999 -99.9 -99.99 -9.99
2018/12/11 02:54 EST    1.83   2.91    1  208    1  24.3  39.7 1022.7 -9.9 -9.999 -99.9 -99.99 -9.99
2018/12/11 03:00 EST    1.77   2.87    0  210    1  24.1  39.7 1022.6 -9.9 -9.999 -99.9 -99.99 -9.99
2018/12/11 03:06 EST    1.70   2.80    0  203    0  24.1  39.7 1022.6 -9.9 -9.999 -99.9 -99.99 -9.99
2018/12/11 03:12 EST    1.64   2.72    0  208    1  23.9  39.7 1022.5 -9.9 -9.999 -99.9 -99.99 -9.99
2018/12/11 03:18 EST    1.57   2.67    1  201    1  23.9  39.7 1022.5 -9.9 -9.999 -99.9 -99.99 -9.99
2018/12/11 03:24 EST    1.50   2.60    0  201    0  23.9  39.6 1022.5 -9.9 -9.999 -99.9 -99.99 -9.99
2018/12/11 03:30 EST    1.43   2.52    0  201    0  23.7  39.6 1022.4 -9.9 -9.999 -99.9 -99.99 -9.99
2018/12/11 03:36 EST    1.37   2.46    1  177    1  23.7  39.6 1022.3 -9.9 -9.999 -99.9 -99.99 -9.99
2018/12/11 03:42 EST    1.30   2.39    1  211    1  23.4  39.6 1022.3 -9.9 -9.999 -99.9 -99.99 -9.99
2018/12/11 03:48 EST    1.23   2.31    1  238    1  23.4  39.6 1022.2 -9.9 -9.999 -99.9 -99.99 -9.99
2018/12/11 03:54 EST    1.16   2.25    0  237    1  23.2  39.6 1022.1 -9.9 -9.999 -99.9 -99.99 -9.99
2018/12/11 04:00 EST    1.09   2.18    1  238    2  23.0  39.6 1022.0 -9.9 -9.999 -99.9 -99.99 -9.99
2018/12/11 04:06 EST    1.03   2.11    1  256    1  23.7  39.6 1022.0 -9.9 -9.999 -99.9 -99.99 -9.99
2018/12/11 04:12 EST    0.96   2.05    1  266    2  23.2  39.6 1021.9 -9.9 -9.999 -99.9 -99.99 -9.99
2018/12/11 04:18 EST    0.89   1.99    1  254    2  23.2  39.6 1021.9 -9.9 -9.999 -99.9 -99.99 -9.99
2018/12/11 04:24 EST    0.83 -99.99 -999 -999 -999 -99.9 -99.9 -999.9 -9.9 -9.999 -99.9 -99.99 -9.99
2018/12/11 04:30 EST    0.76 -99.99 -999 -999 -999 -99.9 -99.9 -999.9 -9.9 -9.999 -99.9 -99.99 -9.99
2018/12/11 04:36 EST    0.70 -99.99 -999 -999 -999 -99.9 -99.9 -999.9 -9.9 -9.999 -99.9 -99.99 -9.99
2018/12/11 04:42 EST    0.64 -99.99 -999 -999 -999 -99.9 -99.9 -999.9 -9.9 -9.999 -99.9 -99.99 -9.99
2018/12/11 04:48 EST    0.58 -99.99 -999 -999 -999 -99.9 -99.9 -999.9 -9.9 -9.999 -99.9 -99.99 -9.99
2018/12/11 04:54 EST    0.52 -99.99 -999 -999 -999 -99.9 -99.9 -999.9 -9.9 -9.999 -99.9 -99.99 -9.99
2018/12/11 05:00 EST    0.46 -99.99 -999 -999 -999 -99.9 -99.9 -999.9 -9.9 -9.999 -99.9 -99.99 -9.99
2018/12/11 05:06 EST    0.41 -99.99 -999 -999 -999 -99.9 -99.9 -999.9 -9.9 -9.999 -99.9 -99.99 -9.99
2018/12/11 05:12 EST    0.36 -99.99 -999 -999 -999 -99.9 -99.9 -999.9 -9.9 -9.999 -99.9 -99.99 -9.99
2018/12/11 05:18 EST    0.31 -99.99 -999 -999 -999 -99.9 -99.9 -999.9 -9.9 -9.999 -99.9 -99.99 -9.99
2018/12/11 05:24 EST    0.26 -99.99 -999 -999 -999 -99.9 -99.9 -999.9 -9.9 -9.999 -99.9 -99.99 -9.99
2018/12/11 05:30 EST    0.21 -99.99 -999 -999 -999 -99.9 -99.9 -999.9 -9.9 -9.999 -99.9 -99.99 -9.99
2018/12/11 05:36 EST    0.17 -99.99 -999 -999 -999 -99.9 -99.9 -999.9 -9.9 -9.999 -99.9 -99.99 -9.99
2018/12/11 05:42 EST    0.13 -99.99 -999 -999 -999 -99.9 -99.9 -999.9 -9.9 -9.999 -99.9 -99.99 -9.99
2018/12/11 05:48 EST    0.09 -99.99 -999 -999 -999 -99.9 -99.9 -999.9 -9.9 -9.999 -99.9 -99.99 -9.99
2018/12/11 05:54 EST    0.05 -99.99 -999 -999 -999 -99.9 -99.9 -999.9 -9.9 -9.999 -99.9 -99.99 -9.99
2018/12/11 06:00 EST    0.02 -99.99 -999 -999 -999 -99.9 -99.9 -999.9 -9.9 -9.999 -99.9 -99.99 -9.99
2018/12/11 06:06 EST   -0.01 -99.99 -999 -999 -999 -99.9 -99.9 -999.9 -9.9 -9.999 -99.9 -99.99 -9.99
2018/12/11 06:12 EST   -0.04 -99.99 -999 -999 -999 -99.9 -99.9 -999.9 -9.9 -9.999 -99.9 -99.99 -9.99
2018/12/11 06:18 EST   -0.06 -99.99 -999 -999 -999 -99.9 -99.9 -999.9 -9.9 -9.999 -99.9 -99.99 -9.99
2018/12/11 06:24 EST   -0.08 -99.99 -999 -999 -999 -99.9 -99.9 -999.9 -9.9 -9.999 -99.9 -99.99 -9.99
2018/12/11 06:30 EST   -0.10 -99.99 -999 -999 -999 -99.9 -99.9 -999.9 -9.9 -9.999 -99.9 -99.99 -9.99
2018/12/11 06:36 EST   -0.11 -99.99 -999 -999 -999 -99.9 -99.9 -999.9 -9.9 -9.999 -99.9 -99.99 -9.99
2018/12/11 06:42 EST   -0.12 -99.99 -999 -999 -999 -99.9 -99.9 -999.9 -9.9 -9.999 -99.9 -99.99 -9.99
2018/12/11 06:48 EST   -0.13 -99.99 -999 -999 -999 -99.9 -99.9 -999.9 -9.9 -9.999 -99.9 -99.99 -9.99
2018/12/11 06:54 EST   -0.14 -99.99 -999 -999 -999 -99.9 -99.9 -999.9 -9.9 -9.999 -99.9 -99.99 -9.99
2018/12/11 07:00 EST   -0.14 -99.99 -999 -999 -999 -99.9 -99.9 -999.9 -9.9 -9.999 -99.9 -99.99 -9.99
2018/12/11 07:06 EST   -0.14 -99.99 -999 -999 -999 -99.9 -99.9 -999.9 -9.9 -9.999 -99.9 -99.99 -9.99
2018/12/11 07:12 EST   -0.13 -99.99 -999 -999 -999 -99.9 -99.9 -999.9 -9.9 -9.999 -99.9 -99.99 -9.99
2018/12/11 07:18 EST   -0.13 -99.99 -999 -999 -999 -99.9 -99.9 -999.9 -9.9 -9.999 -99.9 -99.99 -9.99
2018/12/11 07:24 EST   -0.12 -99.99 -999 -999 -999 -99.9 -99.9 -999.9 -9.9 -9.999 -99.9 -99.99 -9.99
2018/12/11 07:30 EST   -0.11 -99.99 -999 -999 -999 -99.9 -99.9 -999.9 -9.9 -9.999 -99.9 -99.99 -9.99
2018/12/11 07:36 EST   -0.10 -99.99 -999 -999 -999 -99.9 -99.9 -999.9 -9.9 -9.999 -99.9 -99.99 -9.99
2018/12/11 07:42 EST   -0.08 -99.99 -999 -999 -999 -99.9 -99.9 -999.9 -9.9 -9.999 -99.9 -99.99 -9.99
2018/12/11 07:48 EST   -0.06 -99.99 -999 -999 -999 -99.9 -99.9 -999.9 -9.9 -9.999 -99.9 -99.99 -9.99
2018/12/11 07:54 EST   -0.04 -99.99 -999 -999 -999 -99.9 -99.9 -999.9 -9.9 -9.999 -99.9 -99.99 -9.99
2018/12/11 08:00 EST   -0.02 -99.99 -999 -999 -999 -99.9 -99.9 -999.9 -9.9 -9.999 -99.9 -99.99 -9.99
2018/12/11 08:06 EST    0.01 -99.99 -999 -999 -999 -99.9 -99.9 -999.9 -9.9 -9.999 -99.9 -99.99 -9.99
2018/12/11 08:12 EST    0.04 -99.99 -999 -999 -999 -99.9 -99.9 -999.9 -9.9 -9.999 -99.9 -99.99 -9.99
2018/12/11 08:18 EST    0.07 -99.99 -999 -999 -999 -99.9 -99.9 -999.9 -9.9 -9.999 -99.9 -99.99 -9.99
2018/12/11 08:24 EST    0.10 -99.99 -999 -999 -999 -99.9 -99.9 -999.9 -9.9 -9.999 -99.9 -99.99 -9.99
2018/12/11 08:30 EST    0.14 -99.99 -999 -999 -999 -99.9 -99.9 -999.9 -9.9 -9.999 -99.9 -99.99 -9.99
2018/12/11 08:36 EST    0.18 -99.99 -999 -999 -999 -99.9 -99.9 -999.9 -9.9 -9.999 -99.9 -99.99 -9.99
2018/12/11 08:42 EST    0.23 -99.99 -999 -999 -999 -99.9 -99.9 -999.9 -9.9 -9.999 -99.9 -99.99 -9.99
2018/12/11 08:48 EST    0.28 -99.99 -999 -999 -999 -99.9 -99.9 -999.9 -9.9 -9.999 -99.9 -99.99 -9.99
2018/12/11 08:54 EST    0.33 -99.99 -999 -999 -999 -99.9 -99.9 -999.9 -9.9 -9.999 -99.9 -99.99 -9.99
2018/12/11 09:00 EST    0.39 -99.99 -999 -999 -999 -99.9 -99.9 -999.9 -9.9 -9.999 -99.9 -99.99 -9.99
2018/12/11 09:06 EST    0.44 -99.99 -999 -999 -999 -99.9 -99.9 -999.9 -9.9 -9.999 -99.9 -99.99 -9.99
2018/12/11 09:12 EST    0.51 -99.99 -999 -999 -999 -99.9 -99.9 -999.9 -9.9 -9.999 -99.9 -99.99 -9.99
2018/12/11 09:18 EST    0.57 -99.99 -999 -999 -999 -99.9 -99.9 -999.9 -9.9 -9.999 -99.9 -99.99 -9.99
2018/12/11 09:24 EST    0.64 -99.99 -999 -999 -999 -99.9 -99.9 -999.9 -9.9 -9.999 -99.9 -99.99 -9.99
2018/12/11 09:30 EST    0.71 -99.99 -999 -999 -999 -99.9 -99.9 -999.9 -9.9 -9.999 -99.9 -99.99 -9.99
2018/12/11 09:36 EST    0.79 -99.99 -999 -999 -999 -99.9 -99.9 -999.9 -9.9 -9.999 -99.9 -99.99 -9.99
2018/12/11 09:42 EST    0.86 -99.99 -999 -999 -999 -99.9 -99.9 -999.9 -9.9 -9.999 -99.9 -99.99 -9.99
2018/12/11 09:48 EST    0.94 -99.99 -999 -999 -999 -99.9 -99.9 -999.9 -9.9 -9.999 -99.9 -99.99 -9.99
2018/12/11 09:54 EST    1.02 -99.99 -999 -999 -999 -99.9 -99.9 -999.9 -9.9 -9.999 -99.9 -99.99 -9.99
2018/12/11 10:00 EST    1.11 -99.99 -999 -999 -999 -99.9 -99.9 -999.9 -9.9 -9.999 -99.9 -99.99 -9.99
2018/12/11 10:06 EST    1.19 -99.99 -999 -999 -999 -99.9 -99.9 -999.9 -9.9 -9.999 -99.9 -99.99 -9.99
2018/12/11 10:12 EST    1.28 -99.99 -999 -999 -999 -99.9 -99.9 -999.9 -9.9 -9.999 -99.9 -99.99 -9.99
2018/12/11 10:18 EST    1.36 -99.99 -999 -999 -999 -99.9 -99.9 -999.9 -9.9 -9.999 -99.9 -99.99 -9.99
2018/12/11 10:24 EST    1.44 -99.99 -999 -999 -999 -99.9 -99.9 -999.9 -9.9 -9.999 -99.9 -99.99 -9.99

Revised: 08/08/2018
NOAA / National Ocean Service
Web site owner: Center for Operational Oceanographic Products and Services